Time;durP1;ratioP1;P1;durP2;ratioP2;P2;SDS_P1;SDS_P2;PMS_P1;PMS_P2;Temp;Humidity;BMP_temperature;BMP_pressure;BME280_temperature;BME280_humidity;BME280_pressure;Samples;Min_cycle;Max_cycle;Signal;HPM_P1;HPM_P2
2023/06/09 00:00:49;;;;;;;6.20;5.67;;;;;;;21.20;48.60;101370.63;4891108;28;97158;-48
2023/06/09 00:03:21;;;;;;;6.47;6.00;;;;;;;21.23;48.52;101377.19;4888418;28;97158;-48
2023/06/09 00:05:46;;;;;;;7.10;6.53;;;;;;;21.25;48.65;101375.31;4888720;28;97443;-48
2023/06/09 00:08:12;;;;;;;6.17;5.77;;;;;;;21.28;48.73;101371.44;4886444;28;97076;-48
2023/06/09 00:10:37;;;;;;;6.90;6.40;;;;;;;21.32;48.62;101369.03;4890614;28;97381;-48
2023/06/09 00:13:03;;;;;;;5.90;5.40;;;;;;;21.37;48.70;101378.56;4890782;28;97475;-48
2023/06/09 00:15:28;;;;;;;6.77;6.20;;;;;;;21.40;48.67;101369.06;4887690;28;97790;-48
2023/06/09 00:17:54;;;;;;;6.60;6.00;;;;;;;21.42;48.86;101369.28;4887419;28;96710;-49
2023/06/09 00:20:20;;;;;;;6.57;6.13;;;;;;;21.43;48.91;101379.91;4888644;28;97276;-48
2023/06/09 00:22:48;;;;;;;6.10;5.70;;;;;;;21.44;48.83;101378.63;4892291;28;96947;-50
2023/06/09 00:25:15;;;;;;;7.00;6.50;;;;;;;21.43;48.92;101367.97;4892943;28;98167;-48
2023/06/09 00:27:43;;;;;;;7.33;6.63;;;;;;;21.41;49.04;101373.38;4888999;28;98658;-49
2023/06/09 00:30:09;;;;;;;6.47;5.97;;;;;;;21.41;49.14;101374.13;4891429;28;97127;-49
2023/06/09 00:32:35;;;;;;;6.50;5.70;;;;;;;21.43;49.03;101368.72;4889182;28;97552;-48
2023/06/09 00:35:01;;;;;;;5.90;5.40;;;;;;;21.46;49.10;101370.44;4891539;28;97978;-49
2023/06/09 00:37:26;;;;;;;7.20;6.60;;;;;;;21.50;49.10;101370.06;4892354;28;96974;-48
2023/06/09 00:39:52;;;;;;;5.90;5.50;;;;;;;21.50;49.01;101372.84;4894941;28;98524;-48
2023/06/09 00:42:17;;;;;;;6.57;5.97;;;;;;;21.49;49.08;101372.09;4894736;28;97185;-48
2023/06/09 00:44:42;;;;;;;6.73;6.23;;;;;;;21.50;49.13;101372.84;4891659;28;97408;-49
2023/06/09 00:47:08;;;;;;;6.80;6.30;;;;;;;21.49;49.30;101374.19;4893037;28;97400;-49
2023/06/09 00:49:34;;;;;;;5.77;5.37;;;;;;;21.49;49.25;101382.56;4891690;28;97591;-49
2023/06/09 00:52:00;;;;;;;6.13;5.63;;;;;;;21.50;49.29;101370.06;4893425;28;96792;-49
2023/06/09 00:54:26;;;;;;;6.80;6.20;;;;;;;21.53;49.37;101377.38;4894360;28;96923;-49
2023/06/09 00:56:51;;;;;;;6.37;5.87;;;;;;;21.53;49.25;101375.31;4891841;28;97733;-49
2023/06/09 00:59:17;;;;;;;6.20;5.70;;;;;;;21.51;49.28;101374.38;4892617;28;97121;-49
2023/06/09 01:01:44;;;;;;;6.93;6.33;;;;;;;21.44;49.35;101378.63;4893006;28;97449;-48
2023/06/09 01:04:10;;;;;;;6.87;6.00;;;;;;;21.40;49.40;101378.22;4895253;28;97642;-49
2023/06/09 01:07:03;;;;;;;6.63;6.13;;;;;;;21.32;50.30;101363.41;4893352;28;97708;-49
2023/06/09 01:09:47;;;;;;;6.47;5.97;;;;;;;21.36;50.21;101377.81;4890151;28;97233;-49
2023/06/09 01:12:34;;;;;;;5.83;5.30;;;;;;;21.38;49.68;101368.88;4892302;28;96839;-49
2023/06/09 01:15:06;;;;;;;6.60;6.10;;;;;;;21.39;49.65;101376.72;4891027;28;97059;-48
2023/06/09 01:17:33;;;;;;;7.17;6.47;;;;;;;21.34;49.63;101368.50;4894901;28;97333;-49
2023/06/09 01:20:05;;;;;;;7.03;6.53;;;;;;;21.32;49.81;101366.22;4892509;28;97297;-49
2023/06/09 01:22:50;;;;;;;8.50;6.40;;;;;;;21.26;50.75;101362.81;4895233;28;97489;-48
2023/06/09 01:25:38;;;;;;;7.30;5.60;;;;;;;21.20;51.02;101362.22;4893308;28;97000;-49
2023/06/09 01:28:11;;;;;;;6.37;5.87;;;;;;;21.24;50.52;101362.63;4890766;28;97062;-49
2023/06/09 01:30:37;;;;;;;6.10;5.50;;;;;;;21.22;50.35;101356.06;4890705;28;97271;-49
2023/06/09 01:33:09;;;;;;;6.17;5.57;;;;;;;21.25;50.28;101366.91;4889785;28;97435;-49
2023/06/09 01:35:35;;;;;;;5.63;5.23;;;;;;;21.28;50.00;101360.22;4891510;28;97325;-49
2023/06/09 01:38:02;;;;;;;6.70;5.70;;;;;;;21.28;50.16;101359.47;4890073;28;97374;-49
2023/06/09 01:40:28;;;;;;;6.67;6.10;;;;;;;21.27;50.17;101374.78;4893731;28;97356;-48
2023/06/09 01:42:57;;;;;;;6.13;5.63;;;;;;;21.25;50.17;101357.78;4892626;28;97117;-49
2023/06/09 01:45:22;;;;;;;6.40;5.90;;;;;;;21.27;50.04;101355.94;4892728;28;97081;-49
2023/06/09 01:47:47;;;;;;;5.83;5.37;;;;;;;21.28;50.13;101351.81;4891479;28;109415;-49
2023/06/09 01:50:23;;;;;;;6.30;5.70;;;;;;;21.24;50.66;101350.69;4888999;28;103982;-48
2023/06/09 01:53:07;;;;;;;6.27;5.77;;;;;;;21.19;50.92;101348.78;4890369;28;96820;-48
2023/06/09 01:55:38;;;;;;;7.00;5.27;;;;;;;21.18;50.29;101344.50;4893467;28;96783;-49
2023/06/09 01:58:16;;;;;;;5.70;5.20;;;;;;;21.17;50.53;101345.78;4893367;28;97423;-49
2023/06/09 02:00:46;;;;;;;5.50;5.00;;;;;;;21.15;49.81;101353.97;4890762;28;97343;-49
2023/06/09 02:03:14;;;;;;;5.07;4.67;;;;;;;21.16;49.66;101347.84;4892162;28;97071;-48
2023/06/09 02:05:42;;;;;;;5.40;5.00;;;;;;;21.17;49.68;101354.16;4892117;28;97335;-49
2023/06/09 02:08:09;;;;;;;6.23;4.73;;;;;;;21.22;49.77;101354.03;4889712;28;97067;-49
2023/06/09 02:10:35;;;;;;;5.33;4.93;;;;;;;21.25;49.64;101355.00;4891530;28;97160;-49
2023/06/09 02:13:15;;;;;;;6.17;5.57;;;;;;;21.22;49.78;101354.03;4890902;28;96916;-48
2023/06/09 02:15:43;;;;;;;5.90;5.00;;;;;;;21.25;49.57;101355.72;4897995;28;97344;-49
2023/06/09 02:18:11;;;;;;;4.93;4.23;;;;;;;21.24;49.29;101350.69;4889723;28;97497;-49
2023/06/09 02:20:42;;;;;;;5.00;4.60;;;;;;;21.22;49.16;101354.03;4890948;28;96815;-49
2023/06/09 02:23:08;;;;;;;5.10;4.70;;;;;;;21.24;49.32;101356.28;4891284;28;97084;-48
2023/06/09 02:25:33;;;;;;;4.73;4.33;;;;;;;21.27;49.50;101355.19;4892004;28;97403;-48
2023/06/09 02:28:02;;;;;;;5.23;3.93;;;;;;;21.31;49.15;101359.13;4891154;28;97803;-49
2023/06/09 02:30:27;;;;;;;5.17;4.37;;;;;;;21.33;49.18;101362.13;4891083;28;98854;-49
2023/06/09 02:32:53;;;;;;;7.13;4.07;;;;;;;21.35;49.22;101358.78;4892930;28;97209;-49
2023/06/09 02:35:18;;;;;;;4.30;3.90;;;;;;;21.37;48.90;101353.38;4891853;28;97381;-49
2023/06/09 02:37:44;;;;;;;5.27;4.07;;;;;;;21.28;48.56;101359.47;4890638;28;97470;-49
2023/06/09 02:40:10;;;;;;;4.40;4.00;;;;;;;21.21;48.87;101357.41;4889453;28;96790;-49
2023/06/09 02:42:35;;;;;;;4.67;4.27;;;;;;;21.24;48.93;101356.28;4890935;28;97556;-49
2023/06/09 02:45:01;;;;;;;4.27;3.60;;;;;;;21.24;48.61;101347.88;4889886;28;97028;-48
2023/06/09 02:47:26;;;;;;;4.63;4.23;;;;;;;21.26;48.72;101359.28;4890442;28;98744;-49
2023/06/09 02:49:52;;;;;;;3.87;3.67;;;;;;;21.29;48.56;101360.97;4890833;28;97062;-49
2023/06/09 02:52:17;;;;;;;4.97;3.90;;;;;;;21.32;48.62;101360.63;4904630;28;97483;-47
2023/06/09 02:54:43;;;;;;;5.27;4.07;;;;;;;21.32;48.59;101360.63;4895769;28;104770;-49
2023/06/09 02:57:09;;;;;;;4.20;3.90;;;;;;;21.36;48.36;101363.09;4889900;28;96886;-48
2023/06/09 02:59:34;;;;;;;6.10;3.90;;;;;;;21.35;48.00;101359.53;4890560;28;97142;-47
2023/06/09 03:02:00;;;;;;;8.57;4.27;;;;;;;21.35;47.79;101375.56;4891397;28;96919;-49
2023/06/09 03:04:25;;;;;;;4.03;3.63;;;;;;;21.34;48.01;101362.88;4893521;28;97600;-49
2023/06/09 03:06:53;;;;;;;5.60;4.33;;;;;;;21.33;48.11;101364.19;4888045;28;97191;-48
2023/06/09 03:09:19;;;;;;;5.23;4.17;;;;;;;21.33;48.05;101364.19;4890917;28;98576;-49
2023/06/09 03:11:44;;;;;;;5.80;4.00;;;;;;;21.33;47.86;101372.56;4892657;28;96824;-49
2023/06/09 03:14:10;;;;;;;5.57;3.63;;;;;;;21.29;47.51;101366.59;4890690;28;96868;-49
2023/06/09 03:16:35;;;;;;;4.07;3.67;;;;;;;21.26;47.38;101371.22;4892573;28;97292;-49
2023/06/09 03:19:01;;;;;;;4.13;3.83;;;;;;;21.26;47.55;101378.88;4891485;28;104359;-49
2023/06/09 03:21:26;;;;;;;5.80;3.97;;;;;;;21.26;47.24;101374.03;4888973;28;97155;-49
2023/06/09 03:23:52;;;;;;;4.87;4.00;;;;;;;21.26;47.26;101388.03;4891690;28;97346;-49
2023/06/09 03:26:20;;;;;;;6.57;3.83;;;;;;;21.24;47.11;101384.25;4890323;28;97483;-49
2023/06/09 03:28:46;;;;;;;4.70;4.30;;;;;;;21.18;47.12;101384.44;4888938;28;97174;-48
2023/06/09 03:31:13;;;;;;;4.87;3.40;;;;;;;21.11;47.06;101387.16;4889976;28;97386;-49
2023/06/09 03:33:38;;;;;;;4.47;4.07;;;;;;;21.07;47.23;101393.09;4891273;28;97034;-49
2023/06/09 03:36:04;;;;;;;4.80;4.27;;;;;;;21.06;47.26;101397.19;4888234;28;97131;-49
2023/06/09 03:38:29;;;;;;;5.70;4.47;;;;;;;21.01;47.38;101389.69;4889906;28;97579;-49
2023/06/09 03:40:55;;;;;;;3.80;3.50;;;;;;;20.97;47.27;101396.91;4890203;28;97448;-49
2023/06/09 03:43:20;;;;;;;4.87;3.80;;;;;;;20.92;47.13;101395.75;4889928;28;99694;-49
2023/06/09 03:45:45;;;;;;;7.10;3.97;;;;;;;20.90;47.16;101401.88;4890291;28;103081;-49
2023/06/09 03:48:11;;;;;;;4.30;3.90;;;;;;;20.92;47.33;101402.09;4890518;28;96817;-49
2023/06/09 03:50:36;;;;;;;4.10;3.70;;;;;;;20.96;47.16;101396.16;4885153;28;98427;-49
2023/06/09 03:53:01;;;;;;;4.10;3.80;;;;;;;21.00;47.09;101395.81;4886075;28;97288;-49
2023/06/09 03:55:31;;;;;;;5.40;4.50;;;;;;;21.01;47.18;101402.91;4890371;28;96702;-48
2023/06/09 03:57:56;;;;;;;4.50;4.00;;;;;;;20.97;46.96;101394.84;4888706;28;97469;-49
2023/06/09 04:00:22;;;;;;;5.70;4.20;;;;;;;20.97;47.21;101399.72;4888571;28;98250;-49
2023/06/09 04:02:47;;;;;;;4.70;4.30;;;;;;;20.97;47.22;101394.13;4888406;28;97612;-49
2023/06/09 04:05:13;;;;;;;4.37;3.90;;;;;;;21.02;47.41;101410.00;4912540;28;97313;-49
2023/06/09 04:07:39;;;;;;;4.60;3.90;;;;;;;21.05;47.40;101409.69;4893358;28;97504;-49
2023/06/09 04:10:05;;;;;;;4.53;4.23;;;;;;;21.10;47.18;101413.66;4892578;28;98218;-49
2023/06/09 04:12:30;;;;;;;4.73;4.33;;;;;;;21.08;47.21;101408.59;4893770;28;96960;-48
2023/06/09 04:14:56;;;;;;;4.63;4.00;;;;;;;21.08;47.26;101419.06;4891632;28;102009;-49
2023/06/09 04:17:24;;;;;;;4.47;3.97;;;;;;;21.10;47.21;101419.97;4891537;28;97147;-49
2023/06/09 04:19:51;;;;;;;4.17;3.63;;;;;;;21.10;47.40;101414.38;4892405;28;97013;-49
2023/06/09 04:22:16;;;;;;;4.67;3.90;;;;;;;21.12;47.50;101411.78;4893515;28;97348;-48
2023/06/09 04:24:42;;;;;;;4.00;3.70;;;;;;;21.13;47.38;101421.69;4895316;28;97535;-49
2023/06/09 04:27:08;;;;;;;5.17;4.30;;;;;;;21.14;47.21;101417.63;4893512;28;97295;-49
2023/06/09 04:29:34;;;;;;;3.93;3.53;;;;;;;21.15;47.44;101412.75;4891538;28;97645;-49
2023/06/09 04:31:59;;;;;;;4.27;3.97;;;;;;;21.17;47.22;101415.75;4891597;28;96987;-48
2023/06/09 04:34:26;;;;;;;4.13;3.70;;;;;;;21.17;46.98;101410.91;4892907;28;97367;-49
2023/06/09 04:36:52;;;;;;;3.70;3.40;;;;;;;21.15;47.07;101419.09;4891896;28;97656;-49
2023/06/09 04:39:19;;;;;;;3.90;3.10;;;;;;;21.16;46.90;101417.06;4889762;28;96650;-48
2023/06/09 04:41:47;;;;;;;4.23;3.93;;;;;;;21.15;46.97;101418.34;4893589;28;97316;-48
2023/06/09 04:44:13;;;;;;;4.17;3.77;;;;;;;21.14;46.79;101423.22;4893622;28;97136;-48
2023/06/09 04:46:39;;;;;;;4.40;4.00;;;;;;;21.06;46.75;101413.22;4890961;28;97383;-49
2023/06/09 04:49:08;;;;;;;4.00;3.70;;;;;;;21.10;46.50;101413.66;4894682;28;97392;-49
2023/06/09 04:51:48;;;;;;;4.50;4.10;;;;;;;21.11;46.65;101415.13;4891341;28;96938;-48
2023/06/09 04:54:18;;;;;;;3.90;3.60;;;;;;;21.11;46.77;101413.09;4892627;28;97599;-48
2023/06/09 04:56:44;;;;;;;3.80;3.60;;;;;;;21.10;46.78;101405.25;4898977;28;97052;-49
2023/06/09 04:59:11;;;;;;;3.93;3.63;;;;;;;21.13;46.71;101412.53;4891475;28;97021;-48
2023/06/09 05:01:38;;;;;;;4.23;3.70;;;;;;;21.16;46.64;101417.06;4892255;28;97104;-48
2023/06/09 05:04:04;;;;;;;4.80;4.40;;;;;;;21.17;46.51;101408.09;4890822;28;97972;-48
2023/06/09 05:06:29;;;;;;;3.80;3.50;;;;;;;21.25;46.41;101410.97;4889754;28;97661;-49
2023/06/09 05:08:55;;;;;;;4.03;3.73;;;;;;;21.29;46.23;101414.91;4890021;28;104326;-49
2023/06/09 05:11:21;;;;;;;3.77;3.50;;;;;;;21.31;45.76;101415.13;4888895;28;97241;-49
2023/06/09 05:13:46;;;;;;;4.73;4.33;;;;;;;21.33;45.66;101420.16;4891725;28;97198;-49
2023/06/09 05:16:12;;;;;;;5.53;4.23;;;;;;;21.38;45.33;101420.00;4889694;28;100791;-48
2023/06/09 05:18:37;;;;;;;3.33;3.10;;;;;;;21.42;45.21;101417.63;4892015;28;97218;-48
2023/06/09 05:21:03;;;;;;;3.60;3.30;;;;;;;21.46;44.95;101420.81;4891550;28;97170;-49
2023/06/09 05:23:28;;;;;;;4.90;3.70;;;;;;;21.49;44.79;101413.38;4892505;28;97458;-49
2023/06/09 05:25:54;;;;;;;3.50;3.20;;;;;;;21.50;44.42;101426.81;4889341;28;97294;-48
2023/06/09 05:28:19;;;;;;;2.87;2.67;;;;;;;21.56;44.52;101421.06;4892381;28;97096;-48
2023/06/09 05:30:45;;;;;;;3.23;2.97;;;;;;;21.57;44.03;101425.38;4888297;28;100686;-49
2023/06/09 05:33:11;;;;;;;3.43;3.03;;;;;;;21.62;43.99;101427.28;4891201;28;96833;-49
2023/06/09 05:35:36;;;;;;;4.87;3.40;;;;;;;21.70;43.88;101428.06;4893699;28;98284;-48
2023/06/09 05:38:01;;;;;;;3.80;2.97;;;;;;;21.72;43.43;101425.44;4890917;28;97491;-49
2023/06/09 05:40:27;;;;;;;3.97;3.20;;;;;;;21.70;43.27;101432.91;4893283;28;97157;-49
2023/06/09 05:42:52;;;;;;;2.83;2.63;;;;;;;21.73;42.93;101429.00;4892730;28;97567;-49
2023/06/09 05:45:18;;;;;;;3.77;3.10;;;;;;;21.76;42.87;101425.09;4892121;28;98471;-49
2023/06/09 05:47:43;;;;;;;3.43;2.73;;;;;;;21.80;42.86;101429.03;4891434;28;96872;-49
2023/06/09 05:50:09;;;;;;;3.70;3.10;;;;;;;21.83;42.54;101435.63;4890834;28;97241;-49
2023/06/09 05:52:34;;;;;;;3.60;3.20;;;;;;;21.84;42.48;101435.06;4887863;28;98614;-49
2023/06/09 05:55:01;;;;;;;3.30;3.00;;;;;;;21.90;42.42;101444.06;4895904;28;105408;-49
2023/06/09 05:57:29;;;;;;;3.47;3.10;;;;;;;22.00;42.32;101438.69;4892261;28;96805;-49
2023/06/09 05:59:56;;;;;;;3.03;2.70;;;;;;;22.03;41.97;101438.34;4892777;28;96816;-49
2023/06/09 06:02:21;;;;;;;3.53;3.17;;;;;;;22.08;41.97;101445.81;4889368;28;97896;-48
2023/06/09 06:04:47;;;;;;;3.30;3.00;;;;;;;22.12;41.65;101440.63;4891627;28;96958;-49
2023/06/09 06:07:14;;;;;;;3.40;2.77;;;;;;;22.15;41.62;101438.75;4892253;28;97122;-49
2023/06/09 06:09:39;;;;;;;2.87;2.67;;;;;;;22.22;41.95;101447.22;4889753;28;96933;-48
2023/06/09 06:12:06;;;;;;;2.87;2.50;;;;;;;22.31;42.00;101446.69;4887712;28;98258;-49
2023/06/09 06:14:31;;;;;;;3.40;3.10;;;;;;;22.41;41.93;101443.34;4891755;28;98537;-49
2023/06/09 06:16:56;;;;;;;4.40;3.00;;;;;;;22.47;41.92;101441.88;4889186;28;97254;-49
2023/06/09 06:19:22;;;;;;;3.30;3.00;;;;;;;22.53;41.70;101434.03;4890769;28;97131;-49
2023/06/09 06:21:48;;;;;;;3.30;3.00;;;;;;;22.57;41.43;101442.06;4893294;28;97834;-49
2023/06/09 06:24:14;;;;;;;3.33;3.03;;;;;;;22.64;41.18;101447.75;4892497;28;97312;-49
2023/06/09 06:26:39;;;;;;;3.50;2.67;;;;;;;22.74;40.97;101442.31;4892132;28;97292;-49
2023/06/09 06:29:05;;;;;;;3.47;3.17;;;;;;;22.81;40.78;101456.38;4892714;28;97087;-48
2023/06/09 06:31:30;;;;;;;5.23;2.67;;;;;;;22.96;40.50;101447.97;4892367;28;98049;-49
2023/06/09 06:33:56;;;;;;;2.93;2.20;;;;;;;23.05;40.16;101438.25;4889378;28;97227;-48
2023/06/09 06:36:22;;;;;;;2.87;2.67;;;;;;;23.12;39.99;101445.91;4890757;28;97256;-48
2023/06/09 06:38:48;;;;;;;3.37;3.07;;;;;;;23.24;40.38;101443.50;4892849;28;101116;-48
2023/06/09 06:41:13;;;;;;;2.83;2.60;;;;;;;23.32;40.09;101438.59;4890922;28;97654;-48
2023/06/09 06:43:41;;;;;;;3.23;3.00;;;;;;;23.40;39.70;101445.75;4891496;28;97324;-49
2023/06/09 06:46:06;;;;;;;3.00;2.70;;;;;;;23.51;39.94;101444.59;4890973;28;97493;-49
2023/06/09 06:48:32;;;;;;;3.43;3.13;;;;;;;23.63;39.57;101440.81;4892118;28;97287;-49
2023/06/09 06:50:58;;;;;;;3.23;3.00;;;;;;;23.71;39.40;101449.25;4889179;28;99510;-48
2023/06/09 06:53:24;;;;;;;3.20;3.00;;;;;;;23.76;39.26;101449.03;4890978;28;97248;-48
2023/06/09 06:55:50;;;;;;;3.00;2.60;;;;;;;23.79;39.04;101453.53;4891621;28;97422;-48
2023/06/09 06:58:15;;;;;;;3.37;3.07;;;;;;;23.82;39.05;101455.22;4889191;28;97051;-49
2023/06/09 07:00:41;;;;;;;3.50;2.63;;;;;;;23.85;38.98;101461.78;4888958;28;97638;-49
2023/06/09 07:03:09;;;;;;;4.30;3.10;;;;;;;23.88;39.36;101457.81;4892046;28;99523;-49
2023/06/09 07:05:35;;;;;;;3.20;2.93;;;;;;;24.01;39.41;101463.22;4890033;28;97270;-49
2023/06/09 07:08:00;;;;;;;6.87;3.70;;;;;;;24.16;38.99;101465.25;4889368;28;97015;-49
2023/06/09 07:10:26;;;;;;;5.23;3.40;;;;;;;24.28;38.94;101461.47;4889199;28;97444;-49
2023/06/09 07:12:51;;;;;;;5.13;3.40;;;;;;;24.37;39.14;101465.72;4890835;28;97423;-49
2023/06/09 07:15:16;;;;;;;5.70;3.40;;;;;;;24.45;39.07;101463.63;4889445;28;96894;-48
2023/06/09 07:17:43;;;;;;;2.77;2.57;;;;;;;24.53;39.01;101462.25;4890263;28;97523;-49
2023/06/09 07:20:09;;;;;;;3.60;3.30;;;;;;;24.59;39.00;101462.06;4891262;28;96730;-48
2023/06/09 07:22:38;;;;;;;3.40;2.60;;;;;;;24.60;38.68;101460.72;4887886;28;97137;-49
2023/06/09 07:25:04;;;;;;;4.00;3.60;;;;;;;24.69;39.15;101462.91;4887259;28;96947;-49
2023/06/09 07:27:30;;;;;;;3.50;3.20;;;;;;;24.75;38.98;101460.66;4892130;28;97397;-49
2023/06/09 07:29:56;;;;;;;5.20;3.30;;;;;;;24.79;38.98;101461.00;4888787;28;98696;-49
2023/06/09 07:32:21;;;;;;;2.93;2.73;;;;;;;24.85;38.94;101464.34;4891276;28;97668;-48
2023/06/09 07:34:46;;;;;;;3.20;2.90;;;;;;;24.93;39.02;101469.91;4891635;28;97186;-48
2023/06/09 07:37:12;;;;;;;4.93;3.40;;;;;;;24.95;38.83;101468.03;4889938;28;97370;-49
2023/06/09 07:39:38;;;;;;;4.70;3.30;;;;;;;25.03;39.26;101465.16;4890366;28;97674;-49
2023/06/09 07:42:03;;;;;;;2.67;2.50;;;;;;;25.08;39.19;101464.16;4890723;28;97389;-49
2023/06/09 07:44:29;;;;;;;3.43;3.20;;;;;;;25.08;38.73;101470.56;4892888;28;97173;-49
2023/06/09 07:46:54;;;;;;;3.37;3.07;;;;;;;25.10;38.70;101469.97;4891534;28;97050;-48
2023/06/09 07:49:19;;;;;;;3.50;3.20;;;;;;;25.10;38.84;101467.91;4892051;28;97480;-48
2023/06/09 07:51:46;;;;;;;2.80;2.60;;;;;;;25.15;38.76;101464.13;4893699;28;99028;-49
2023/06/09 07:54:11;;;;;;;4.00;3.33;;;;;;;25.14;38.78;101468.25;4892855;28;97307;-48
2023/06/09 07:56:37;;;;;;;3.90;3.50;;;;;;;25.26;38.66;101469.28;4892028;28;96890;-49
2023/06/09 07:59:02;;;;;;;4.10;3.50;;;;;;;25.31;38.55;101470.38;4893144;28;97849;-49
2023/06/09 08:01:29;;;;;;;2.90;2.70;;;;;;;25.40;38.46;101483.81;4893354;28;97396;-49
2023/06/09 08:03:55;;;;;;;4.70;3.43;;;;;;;25.44;38.36;101475.00;4892750;28;97168;-49
2023/06/09 08:06:20;;;;;;;4.00;3.37;;;;;;;25.48;38.52;101473.25;4890250;28;97405;-49
2023/06/09 08:08:46;;;;;;;3.90;3.50;;;;;;;25.53;38.33;101471.53;4891457;28;97500;-49
2023/06/09 08:11:11;;;;;;;4.57;3.90;;;;;;;25.53;38.45;101468.72;4891142;28;98364;-49
2023/06/09 08:13:37;;;;;;;3.73;3.43;;;;;;;25.56;38.31;101470.34;4894702;28;96766;-48
2023/06/09 08:16:03;;;;;;;3.40;3.03;;;;;;;25.65;38.53;101473.28;4892817;28;102178;-49
2023/06/09 08:18:28;;;;;;;3.33;3.03;;;;;;;25.78;38.63;101475.00;4893609;28;98995;-49
2023/06/09 08:20:53;;;;;;;3.13;2.93;;;;;;;25.93;38.32;101477.66;4891038;28;97392;-49
2023/06/09 08:23:22;;;;;;;11.50;3.70;;;;;;;26.04;38.54;101479.97;4890747;28;97056;-50
2023/06/09 08:25:48;;;;;;;2.93;2.73;;;;;;;26.14;38.48;101466.75;4892634;28;97128;-49
2023/06/09 08:28:14;;;;;;;6.00;3.00;;;;;;;26.17;38.56;101465.56;4892460;28;97161;-48
2023/06/09 08:30:39;;;;;;;3.93;3.47;;;;;;;26.24;38.35;101470.38;4894864;28;97810;-49
2023/06/09 08:33:04;;;;;;;4.33;3.20;;;;;;;26.39;38.29;101475.06;4890560;28;96801;-48
2023/06/09 08:35:32;;;;;;;3.20;3.00;;;;;;;26.47;38.30;101473.63;4893084;28;97156;-49
2023/06/09 08:38:01;;;;;;;3.83;3.30;;;;;;;26.55;38.12;101471.47;4891541;28;98688;-49
2023/06/09 08:40:26;;;;;;;2.60;2.40;;;;;;;26.70;38.33;101465.59;4889206;28;97706;-49
2023/06/09 08:42:55;;;;;;;2.57;2.33;;;;;;;26.81;37.99;101480.53;4890691;28;98371;-49
2023/06/09 08:45:22;;;;;;;7.67;3.17;;;;;;;26.89;37.14;101467.78;4890120;28;97026;-48
2023/06/09 08:47:48;;;;;;;2.83;2.63;;;;;;;26.94;37.75;101480.16;4889480;28;97981;-49
2023/06/09 08:50:16;;;;;;;3.30;3.10;;;;;;;27.06;37.95;101469.81;4890482;28;98397;-49
2023/06/09 08:52:42;;;;;;;3.10;2.90;;;;;;;27.19;37.50;101472.22;4892842;28;96946;-49
2023/06/09 08:55:08;;;;;;;2.90;2.70;;;;;;;27.31;37.25;101468.25;4889056;28;97503;-49
2023/06/09 08:57:34;;;;;;;3.60;2.90;;;;;;;27.49;37.17;101471.72;4888830;28;96852;-49
2023/06/09 09:00:00;;;;;;;3.53;3.33;;;;;;;27.61;37.09;101480.38;4890984;28;96883;-49
2023/06/09 09:02:25;;;;;;;3.17;2.90;;;;;;;27.69;36.84;101478.91;4892238;28;96728;-48
2023/06/09 09:04:51;;;;;;;2.77;2.57;;;;;;;27.78;36.95;101471.75;4893710;28;96951;-49
2023/06/09 09:07:16;;;;;;;3.50;3.10;;;;;;;27.89;36.95;101477.56;4893439;28;97356;-49
2023/06/09 09:09:42;;;;;;;2.90;2.70;;;;;;;28.01;36.63;101481.31;4892181;28;97101;-49
2023/06/09 09:12:14;;;;;;;3.23;2.93;;;;;;;28.09;35.94;101476.25;4891608;28;97341;-49
2023/06/09 09:14:41;;;;;;;3.80;3.37;;;;;;;28.22;36.57;101477.16;4894150;28;97666;-48
2023/06/09 09:17:11;;;;;;;2.90;2.70;;;;;;;28.37;35.98;101465.50;4893269;28;97123;-50
2023/06/09 09:19:39;;;;;;;3.63;2.70;;;;;;;28.50;35.82;101474.25;4896009;28;97697;-49
2023/06/09 09:22:08;;;;;;;3.80;2.93;;;;;;;28.67;35.07;101465.59;4891799;28;97764;-49
2023/06/09 09:24:34;;;;;;;3.30;2.90;;;;;;;28.78;35.36;101461.38;4896609;28;97451;-49
2023/06/09 09:27:00;;;;;;;3.20;2.90;;;;;;;28.85;35.32;101460.47;4894819;28;97149;-49
2023/06/09 09:29:29;;;;;;;4.23;3.33;;;;;;;28.87;34.97;101467.03;4892753;28;97109;-48
2023/06/09 09:31:58;;;;;;;3.90;3.60;;;;;;;28.92;34.36;101457.44;4892161;28;97084;-50
2023/06/09 09:34:26;;;;;;;2.90;2.70;;;;;;;29.01;34.89;101458.00;4892844;28;97064;-48
2023/06/09 09:36:57;;;;;;;3.33;3.03;;;;;;;29.21;34.96;101460.16;4893975;28;99577;-49
2023/06/09 09:39:24;;;;;;;3.43;3.20;;;;;;;29.35;34.38;101452.63;4890898;28;97807;-48
2023/06/09 09:42:07;;;;;;;3.60;3.30;;;;;;;29.48;33.49;101459.84;4891947;28;97115;-49
2023/06/09 09:44:40;;;;;;;5.53;3.17;;;;;;;29.66;33.65;101461.78;4892878;28;97071;-49
2023/06/09 09:47:08;;;;;;;3.23;2.83;;;;;;;29.75;33.83;101454.59;4893117;28;97645;-48
2023/06/09 09:49:34;;;;;;;4.00;3.53;;;;;;;29.88;33.78;101458.97;4892001;28;98587;-49
2023/06/09 09:51:59;;;;;;;4.30;2.87;;;;;;;30.04;33.91;101457.94;4891864;28;96683;-50
2023/06/09 09:54:27;;;;;;;3.07;2.87;;;;;;;30.13;33.20;101453.50;4891482;28;97162;-49
2023/06/09 09:56:58;;;;;;;4.90;2.40;;;;;;;30.19;32.96;101454.63;4895113;28;97369;-49
2023/06/09 09:59:25;;;;;;;2.90;2.70;;;;;;;30.24;33.05;101442.19;4892368;28;97150;-51
2023/06/09 10:01:54;;;;;;;2.93;2.57;;;;;;;30.36;33.02;101445.09;4892970;28;97319;-49
2023/06/09 10:04:24;;;;;;;3.43;2.53;;;;;;;30.49;32.33;101447.34;4890297;28;96747;-50
2023/06/09 10:07:01;;;;;;;2.93;2.73;;;;;;;30.63;32.17;101436.84;4892509;28;97826;-49
2023/06/09 10:09:27;;;;;;;2.80;2.60;;;;;;;30.74;32.46;101441.06;4892067;28;97438;-49
2023/06/09 10:11:54;;;;;;;3.40;3.20;;;;;;;30.65;31.96;101436.97;4892706;28;97184;-50
2023/06/09 10:14:20;;;;;;;2.93;2.73;;;;;;;30.41;32.48;101438.28;4893080;28;98250;-48
2023/06/09 10:16:47;;;;;;;5.53;3.50;;;;;;;30.30;32.45;101436.16;4891926;28;97376;-49
2023/06/09 10:19:14;;;;;;;3.23;2.93;;;;;;;30.32;32.47;101439.88;4890711;28;98314;-49
2023/06/09 10:21:41;;;;;;;3.27;2.97;;;;;;;30.38;32.40;101437.44;4889333;28;97105;-49
2023/06/09 10:24:07;;;;;;;2.50;2.30;;;;;;;30.54;32.39;101434.13;4891347;28;97788;-50
2023/06/09 10:26:36;;;;;;;4.43;3.10;;;;;;;30.63;32.14;101424.75;4892565;28;97314;-50
2023/06/09 10:29:09;;;;;;;2.80;2.47;;;;;;;30.77;31.61;101437.75;4891828;28;96708;-50
2023/06/09 10:31:40;;;;;;;4.17;2.80;;;;;;;30.89;31.72;101429.22;4891455;28;97295;-50
2023/06/09 10:34:07;;;;;;;3.40;3.10;;;;;;;31.01;31.63;101427.88;4889303;28;96623;-49
2023/06/09 10:36:38;;;;;;;3.00;2.80;;;;;;;31.08;31.34;101441.06;4888841;28;97344;-49
2023/06/09 10:39:17;;;;;;;3.03;2.73;;;;;;;31.14;29.93;101434.28;4890908;28;97640;-50
2023/06/09 10:42:08;;;;;;;5.10;2.60;;;;;;;31.19;31.02;101421.78;4891913;28;97276;-49
2023/06/09 10:44:54;;;;;;;3.10;2.90;;;;;;;31.29;31.10;101425.97;4891979;28;96885;-49
2023/06/09 10:47:44;;;;;;;3.87;2.80;;;;;;;31.37;30.11;101426.44;4888532;28;98770;-48
2023/06/09 10:50:20;;;;;;;2.97;2.77;;;;;;;31.46;30.32;101419.16;4890957;28;96578;-49
2023/06/09 10:52:50;;;;;;;3.60;3.30;;;;;;;31.53;31.04;101421.72;4889248;28;96791;-49
2023/06/09 10:55:15;;;;;;;3.57;3.27;;;;;;;31.48;30.54;101436.31;4890431;28;97317;-49
2023/06/09 10:57:41;;;;;;;4.00;3.70;;;;;;;31.38;30.82;101424.34;4888254;28;96664;-49
2023/06/09 11:00:11;;;;;;;3.77;3.40;;;;;;;31.19;30.77;101416.09;4888915;28;96831;-49
2023/06/09 11:03:08;;;;;;;3.33;3.13;;;;;;;31.17;30.40;101415.97;4889819;28;97127;-49
2023/06/09 11:05:42;;;;;;;3.30;3.00;;;;;;;31.29;30.56;101408.91;4897067;28;97205;-49
2023/06/09 11:08:07;;;;;;;3.23;3.03;;;;;;;31.34;30.83;101407.78;4889085;28;96764;-49
2023/06/09 11:10:35;;;;;;;3.63;3.33;;;;;;;31.33;30.81;101399.84;4889248;28;97128;-50
2023/06/09 11:13:03;;;;;;;3.70;3.00;;;;;;;31.35;30.74;101399.97;4888975;28;97256;-49
2023/06/09 11:15:57;;;;;;;3.00;2.80;;;;;;;31.40;30.06;101399.59;4889440;28;97251;-50
2023/06/09 11:18:23;;;;;;;4.30;3.37;;;;;;;31.47;30.65;101400.72;4889595;28;96708;-49
2023/06/09 11:21:12;;;;;;;3.73;3.43;;;;;;;31.59;30.17;101396.47;4891290;28;98283;-50
2023/06/09 11:23:55;;;;;;;3.53;3.00;;;;;;;31.83;29.07;101392.16;4890954;28;96719;-49
2023/06/09 11:26:22;;;;;;;5.50;3.80;;;;;;;31.82;30.32;101384.25;4892571;28;97204;-49